Terminal Aerodrome Forecast
Issued by NWS Sioux Falls, SD

Home | Current Version | Previous Version | Graphics & Text | Print | Product List | Glossary On
Versions: 1 2 3 4 5 6 7 8 9 10 11 12 13 14 15 16 17 18 19 20 21 22 23 24 25 26 27
000
FTUS43 KFSD 021120
TAFSUX
TAF
KSUX 021120Z 0212/0312 14010KT P6SM SCT040 BKN100
     FM021400 17018G27KT P6SM SCT040 SCT250
     FM030200 18012G18KT P6SM BKN040 OVC100
     FM030700 18013G20KT P6SM VCTS BKN040CB OVC250=

USA.gov is the U.S. government's official web portal to all federal, state and local government web resources and services.